sensor_id;sensor_type;location;lat;lon;timestamp;temperature;humidity
15638;DHT22;26604;53.596;10.042;2023-04-25T00:00:35;18.80;99.90
15638;DHT22;26604;53.596;10.042;2023-04-25T00:03:01;18.80;99.90
15638;DHT22;26604;53.596;10.042;2023-04-25T00:05:28;18.80;99.90
15638;DHT22;26604;53.596;10.042;2023-04-25T00:07:55;18.80;99.90
15638;DHT22;26604;53.596;10.042;2023-04-25T00:10:23;18.80;99.90
15638;DHT22;26604;53.596;10.042;2023-04-25T00:12:51;18.80;99.90
15638;DHT22;26604;53.596;10.042;2023-04-25T00:15:18;18.80;99.90
15638;DHT22;26604;53.596;10.042;2023-04-25T00:17:47;18.80;99.90
15638;DHT22;26604;53.596;10.042;2023-04-25T00:20:13;18.80;99.90
15638;DHT22;26604;53.596;10.042;2023-04-25T00:22:40;18.80;99.90
15638;DHT22;26604;53.596;10.042;2023-04-25T00:25:07;18.80;99.90
15638;DHT22;26604;53.596;10.042;2023-04-25T00:27:34;18.80;99.90
15638;DHT22;26604;53.596;10.042;2023-04-25T00:30:02;18.80;99.90
15638;DHT22;26604;53.596;10.042;2023-04-25T00:32:28;18.80;99.90
15638;DHT22;26604;53.596;10.042;2023-04-25T00:34:55;18.80;99.90
15638;DHT22;26604;53.596;10.042;2023-04-25T00:37:23;18.80;99.90
15638;DHT22;26604;53.596;10.042;2023-04-25T00:39:50;18.80;99.90
15638;DHT22;26604;53.596;10.042;2023-04-25T00:42:18;18.80;99.90
15638;DHT22;26604;53.596;10.042;2023-04-25T00:44:45;18.80;99.90
15638;DHT22;26604;53.596;10.042;2023-04-25T00:47:14;18.80;99.90
15638;DHT22;26604;53.596;10.042;2023-04-25T00:49:41;18.80;99.90
15638;DHT22;26604;53.596;10.042;2023-04-25T00:52:08;18.80;99.90
15638;DHT22;26604;53.596;10.042;2023-04-25T00:54:34;18.80;99.90
15638;DHT22;26604;53.596;10.042;2023-04-25T00:57:01;18.80;99.90
15638;DHT22;26604;53.596;10.042;2023-04-25T00:59:28;18.80;99.90
15638;DHT22;26604;53.596;10.042;2023-04-25T01:01:56;18.80;99.90
15638;DHT22;26604;53.596;10.042;2023-04-25T01:04:24;18.80;99.90
15638;DHT22;26604;53.596;10.042;2023-04-25T01:06:51;18.80;99.90
15638;DHT22;26604;53.596;10.042;2023-04-25T01:09:17;18.80;99.90
15638;DHT22;26604;53.596;10.042;2023-04-25T01:11:45;18.80;99.90
15638;DHT22;26604;53.596;10.042;2023-04-25T01:14:11;18.80;99.90
15638;DHT22;26604;53.596;10.042;2023-04-25T01:16:38;18.70;99.90
15638;DHT22;26604;53.596;10.042;2023-04-25T01:19:05;18.80;99.90
15638;DHT22;26604;53.596;10.042;2023-04-25T01:21:38;18.70;99.90
15638;DHT22;26604;53.596;10.042;2023-04-25T01:24:05;18.70;99.90
15638;DHT22;26604;53.596;10.042;2023-04-25T01:26:32;18.70;99.90
15638;DHT22;26604;53.596;10.042;2023-04-25T01:29:00;18.70;99.90
15638;DHT22;26604;53.596;10.042;2023-04-25T01:31:27;18.70;99.90
15638;DHT22;26604;53.596;10.042;2023-04-25T01:33:54;18.70;99.90
15638;DHT22;26604;53.596;10.042;2023-04-25T01:36:21;18.70;99.90
15638;DHT22;26604;53.596;10.042;2023-04-25T01:38:49;18.70;99.90
15638;DHT22;26604;53.596;10.042;2023-04-25T01:41:16;18.70;99.90
15638;DHT22;26604;53.596;10.042;2023-04-25T01:43:43;18.70;99.90
15638;DHT22;26604;53.596;10.042;2023-04-25T01:46:10;18.70;99.90
15638;DHT22;26604;53.596;10.042;2023-04-25T01:48:37;18.70;99.90
15638;DHT22;26604;53.596;10.042;2023-04-25T01:51:04;18.70;99.90
15638;DHT22;26604;53.596;10.042;2023-04-25T01:53:30;18.70;99.90
15638;DHT22;26604;53.596;10.042;2023-04-25T01:55:59;18.70;99.90
15638;DHT22;26604;53.596;10.042;2023-04-25T01:58:25;18.70;99.90
15638;DHT22;26604;53.596;10.042;2023-04-25T02:00:52;18.70;99.90
15638;DHT22;26604;53.596;10.042;2023-04-25T02:03:18;18.70;99.90
15638;DHT22;26604;53.596;10.042;2023-04-25T02:05:45;18.70;99.90
15638;DHT22;26604;53.596;10.042;2023-04-25T02:08:12;18.70;99.90
15638;DHT22;26604;53.596;10.042;2023-04-25T02:10:38;18.70;99.90
15638;DHT22;26604;53.596;10.042;2023-04-25T02:13:06;18.60;99.90
15638;DHT22;26604;53.596;10.042;2023-04-25T02:15:33;18.60;99.90
15638;DHT22;26604;53.596;10.042;2023-04-25T02:18:00;18.60;99.90
15638;DHT22;26604;53.596;10.042;2023-04-25T02:20:27;18.60;99.90
15638;DHT22;26604;53.596;10.042;2023-04-25T02:22:54;18.30;99.90
15638;DHT22;26604;53.596;10.042;2023-04-25T02:25:20;18.60;99.90
15638;DHT22;26604;53.596;10.042;2023-04-25T02:27:47;18.60;99.90
15638;DHT22;26604;53.596;10.042;2023-04-25T02:30:15;18.60;99.90
15638;DHT22;26604;53.596;10.042;2023-04-25T02:32:42;18.60;99.90
15638;DHT22;26604;53.596;10.042;2023-04-25T02:35:09;18.60;99.90
15638;DHT22;26604;53.596;10.042;2023-04-25T02:37:36;18.60;99.90
15638;DHT22;26604;53.596;10.042;2023-04-25T02:40:03;18.60;99.90
15638;DHT22;26604;53.596;10.042;2023-04-25T02:42:30;18.60;99.90
15638;DHT22;26604;53.596;10.042;2023-04-25T02:44:57;18.60;99.90
15638;DHT22;26604;53.596;10.042;2023-04-25T02:47:25;18.60;99.90
15638;DHT22;26604;53.596;10.042;2023-04-25T02:49:52;18.60;99.90
15638;DHT22;26604;53.596;10.042;2023-04-25T02:52:18;18.60;99.90
15638;DHT22;26604;53.596;10.042;2023-04-25T02:54:46;18.50;99.90
15638;DHT22;26604;53.596;10.042;2023-04-25T02:57:13;18.50;99.90
15638;DHT22;26604;53.596;10.042;2023-04-25T02:59:40;18.50;99.90
15638;DHT22;26604;53.596;10.042;2023-04-25T03:02:06;18.60;99.90
15638;DHT22;26604;53.596;10.042;2023-04-25T03:04:34;18.50;99.90
15638;DHT22;26604;53.596;10.042;2023-04-25T03:07:01;18.50;99.90
15638;DHT22;26604;53.596;10.042;2023-04-25T03:09:28;18.50;99.90
15638;DHT22;26604;53.596;10.042;2023-04-25T03:11:54;18.50;99.90
15638;DHT22;26604;53.596;10.042;2023-04-25T03:14:21;18.50;99.90
15638;DHT22;26604;53.596;10.042;2023-04-25T03:16:48;18.50;99.90
15638;DHT22;26604;53.596;10.042;2023-04-25T03:19:14;18.50;99.90
15638;DHT22;26604;53.596;10.042;2023-04-25T03:21:43;18.50;99.90
15638;DHT22;26604;53.596;10.042;2023-04-25T03:24:10;18.50;99.90
15638;DHT22;26604;53.596;10.042;2023-04-25T03:26:37;18.50;99.90
15638;DHT22;26604;53.596;10.042;2023-04-25T03:29:04;18.50;99.90
15638;DHT22;26604;53.596;10.042;2023-04-25T03:31:30;18.50;99.90
15638;DHT22;26604;53.596;10.042;2023-04-25T03:33:57;18.50;99.90
15638;DHT22;26604;53.596;10.042;2023-04-25T03:36:24;18.50;99.90
15638;DHT22;26604;53.596;10.042;2023-04-25T03:38:52;18.50;99.90
15638;DHT22;26604;53.596;10.042;2023-04-25T03:41:18;18.50;99.90
15638;DHT22;26604;53.596;10.042;2023-04-25T03:43:45;18.50;99.90
15638;DHT22;26604;53.596;10.042;2023-04-25T03:46:12;18.50;99.90
15638;DHT22;26604;53.596;10.042;2023-04-25T03:48:38;18.50;99.90
15638;DHT22;26604;53.596;10.042;2023-04-25T03:51:05;18.40;99.90
15638;DHT22;26604;53.596;10.042;2023-04-25T03:53:32;18.40;99.90
15638;DHT22;26604;53.596;10.042;2023-04-25T03:56:00;18.40;99.90
15638;DHT22;26604;53.596;10.042;2023-04-25T03:58:26;18.40;99.90
15638;DHT22;26604;53.596;10.042;2023-04-25T04:00:53;18.40;99.90
15638;DHT22;26604;53.596;10.042;2023-04-25T04:03:20;18.40;99.90
15638;DHT22;26604;53.596;10.042;2023-04-25T04:05:47;18.40;99.90
15638;DHT22;26604;53.596;10.042;2023-04-25T04:08:14;18.40;99.90
15638;DHT22;26604;53.596;10.042;2023-04-25T04:10:40;18.40;99.90
15638;DHT22;26604;53.596;10.042;2023-04-25T04:13:08;18.40;99.90
15638;DHT22;26604;53.596;10.042;2023-04-25T04:15:35;18.40;99.90
15638;DHT22;26604;53.596;10.042;2023-04-25T04:18:02;18.40;99.90
15638;DHT22;26604;53.596;10.042;2023-04-25T04:20:29;18.40;99.90
15638;DHT22;26604;53.596;10.042;2023-04-25T04:22:56;18.40;99.90
15638;DHT22;26604;53.596;10.042;2023-04-25T04:25:23;18.40;99.90
15638;DHT22;26604;53.596;10.042;2023-04-25T04:27:50;18.40;99.90
15638;DHT22;26604;53.596;10.042;2023-04-25T04:30:21;18.30;99.90
15638;DHT22;26604;53.596;10.042;2023-04-25T04:32:49;18.40;99.90
15638;DHT22;26604;53.596;10.042;2023-04-25T04:35:16;18.40;99.90
15638;DHT22;26604;53.596;10.042;2023-04-25T04:37:42;18.40;99.90
15638;DHT22;26604;53.596;10.042;2023-04-25T04:40:11;18.40;99.90
15638;DHT22;26604;53.596;10.042;2023-04-25T04:42:40;18.40;99.90
15638;DHT22;26604;53.596;10.042;2023-04-25T04:45:07;18.40;99.90
15638;DHT22;26604;53.596;10.042;2023-04-25T04:47:36;18.40;99.90
15638;DHT22;26604;53.596;10.042;2023-04-25T04:50:05;18.40;99.90
15638;DHT22;26604;53.596;10.042;2023-04-25T04:52:32;18.40;99.90
15638;DHT22;26604;53.596;10.042;2023-04-25T04:54:59;18.40;99.90
15638;DHT22;26604;53.596;10.042;2023-04-25T04:57:25;18.40;99.90
15638;DHT22;26604;53.596;10.042;2023-04-25T04:59:52;18.40;99.90
15638;DHT22;26604;53.596;10.042;2023-04-25T05:02:19;18.40;99.90
15638;DHT22;26604;53.596;10.042;2023-04-25T05:04:47;18.40;99.90
15638;DHT22;26604;53.596;10.042;2023-04-25T05:07:13;18.40;99.90
15638;DHT22;26604;53.596;10.042;2023-04-25T05:09:40;18.40;99.90
15638;DHT22;26604;53.596;10.042;2023-04-25T05:12:07;18.40;99.90
15638;DHT22;26604;53.596;10.042;2023-04-25T05:14:34;18.40;99.90
15638;DHT22;26604;53.596;10.042;2023-04-25T05:17:00;18.40;99.90
15638;DHT22;26604;53.596;10.042;2023-04-25T05:19:30;18.40;99.90
15638;DHT22;26604;53.596;10.042;2023-04-25T05:21:58;18.40;99.90
15638;DHT22;26604;53.596;10.042;2023-04-25T05:24:24;18.40;99.90
15638;DHT22;26604;53.596;10.042;2023-04-25T05:26:51;18.80;99.90
15638;DHT22;26604;53.596;10.042;2023-04-25T05:29:18;18.40;99.90
15638;DHT22;26604;53.596;10.042;2023-04-25T05:31:45;18.40;99.90
15638;DHT22;26604;53.596;10.042;2023-04-25T05:34:12;18.40;99.90
15638;DHT22;26604;53.596;10.042;2023-04-25T05:36:39;18.40;99.90
15638;DHT22;26604;53.596;10.042;2023-04-25T05:39:07;18.30;99.90
15638;DHT22;26604;53.596;10.042;2023-04-25T05:41:34;18.40;99.90
15638;DHT22;26604;53.596;10.042;2023-04-25T05:44:01;18.40;99.90
15638;DHT22;26604;53.596;10.042;2023-04-25T05:46:27;18.40;99.90
15638;DHT22;26604;53.596;10.042;2023-04-25T05:48:54;18.40;99.90
15638;DHT22;26604;53.596;10.042;2023-04-25T05:51:21;18.40;99.90
15638;DHT22;26604;53.596;10.042;2023-04-25T05:53:47;18.40;99.90
15638;DHT22;26604;53.596;10.042;2023-04-25T05:56:15;18.40;99.90
15638;DHT22;26604;53.596;10.042;2023-04-25T05:58:42;18.40;99.90
15638;DHT22;26604;53.596;10.042;2023-04-25T06:01:09;18.40;99.90
15638;DHT22;26604;53.596;10.042;2023-04-25T06:03:36;18.40;99.90
15638;DHT22;26604;53.596;10.042;2023-04-25T06:06:03;18.40;99.90
15638;DHT22;26604;53.596;10.042;2023-04-25T06:08:31;18.40;99.90
15638;DHT22;26604;53.596;10.042;2023-04-25T06:10:58;18.50;99.90
15638;DHT22;26604;53.596;10.042;2023-04-25T06:13:26;18.50;99.90
15638;DHT22;26604;53.596;10.042;2023-04-25T06:15:55;18.50;99.90
15638;DHT22;26604;53.596;10.042;2023-04-25T06:18:21;18.50;99.90
15638;DHT22;26604;53.596;10.042;2023-04-25T06:20:50;18.50;99.90
15638;DHT22;26604;53.596;10.042;2023-04-25T06:23:16;18.60;99.90
15638;DHT22;26604;53.596;10.042;2023-04-25T06:25:43;18.60;99.90
15638;DHT22;26604;53.596;10.042;2023-04-25T06:28:10;18.60;99.90
15638;DHT22;26604;53.596;10.042;2023-04-25T06:30:38;18.60;99.90
15638;DHT22;26604;53.596;10.042;2023-04-25T06:33:04;18.60;99.90
15638;DHT22;26604;53.596;10.042;2023-04-25T06:35:34;18.60;99.90
15638;DHT22;26604;53.596;10.042;2023-04-25T06:38:00;18.60;99.90
15638;DHT22;26604;53.596;10.042;2023-04-25T06:40:27;18.60;99.90
15638;DHT22;26604;53.596;10.042;2023-04-25T06:42:54;18.70;99.90
15638;DHT22;26604;53.596;10.042;2023-04-25T06:45:20;18.60;99.90
15638;DHT22;26604;53.596;10.042;2023-04-25T06:47:48;18.70;99.90
15638;DHT22;26604;53.596;10.042;2023-04-25T06:50:15;18.70;99.90
15638;DHT22;26604;53.596;10.042;2023-04-25T06:52:42;18.70;99.90
15638;DHT22;26604;53.596;10.042;2023-04-25T06:55:09;18.70;99.90
15638;DHT22;26604;53.596;10.042;2023-04-25T06:57:35;18.70;99.90
15638;DHT22;26604;53.596;10.042;2023-04-25T07:00:02;18.70;99.90
15638;DHT22;26604;53.596;10.042;2023-04-25T07:02:33;18.70;99.90
15638;DHT22;26604;53.596;10.042;2023-04-25T07:05:01;18.80;99.90
15638;DHT22;26604;53.596;10.042;2023-04-25T07:07:29;18.80;99.90
15638;DHT22;26604;53.596;10.042;2023-04-25T07:09:56;18.80;99.90
15638;DHT22;26604;53.596;10.042;2023-04-25T07:12:22;18.80;99.90
15638;DHT22;26604;53.596;10.042;2023-04-25T07:14:49;18.80;99.90
15638;DHT22;26604;53.596;10.042;2023-04-25T07:17:17;18.80;99.90
15638;DHT22;26604;53.596;10.042;2023-04-25T07:19:43;18.80;99.90
15638;DHT22;26604;53.596;10.042;2023-04-25T07:22:11;18.80;99.90
15638;DHT22;26604;53.596;10.042;2023-04-25T07:24:38;18.80;99.90
15638;DHT22;26604;53.596;10.042;2023-04-25T07:27:05;18.80;99.90
15638;DHT22;26604;53.596;10.042;2023-04-25T07:29:31;18.80;99.90
15638;DHT22;26604;53.596;10.042;2023-04-25T07:32:02;18.80;99.90
15638;DHT22;26604;53.596;10.042;2023-04-25T07:34:28;18.80;99.90
15638;DHT22;26604;53.596;10.042;2023-04-25T07:36:55;18.80;99.90
15638;DHT22;26604;53.596;10.042;2023-04-25T07:39:23;18.80;99.90
15638;DHT22;26604;53.596;10.042;2023-04-25T07:41:50;18.80;99.90
15638;DHT22;26604;53.596;10.042;2023-04-25T07:44:17;18.80;99.90
15638;DHT22;26604;53.596;10.042;2023-04-25T07:46:43;18.80;99.90
15638;DHT22;26604;53.596;10.042;2023-04-25T07:49:10;18.90;99.90
15638;DHT22;26604;53.596;10.042;2023-04-25T07:51:37;18.90;99.90
15638;DHT22;26604;53.596;10.042;2023-04-25T07:54:04;18.90;99.90
15638;DHT22;26604;53.596;10.042;2023-04-25T07:56:32;18.90;99.90
15638;DHT22;26604;53.596;10.042;2023-04-25T07:58:59;18.90;99.90
15638;DHT22;26604;53.596;10.042;2023-04-25T08:01:26;18.90;99.90
15638;DHT22;26604;53.596;10.042;2023-04-25T08:03:53;18.90;99.90
15638;DHT22;26604;53.596;10.042;2023-04-25T08:06:22;19.00;99.90
15638;DHT22;26604;53.596;10.042;2023-04-25T08:08:48;19.00;99.90
15638;DHT22;26604;53.596;10.042;2023-04-25T08:11:15;19.00;99.90
15638;DHT22;26604;53.596;10.042;2023-04-25T08:13:43;19.00;99.90
15638;DHT22;26604;53.596;10.042;2023-04-25T08:16:10;19.00;99.90
15638;DHT22;26604;53.596;10.042;2023-04-25T08:18:37;19.00;99.90
15638;DHT22;26604;53.596;10.042;2023-04-25T08:21:03;19.00;99.90
15638;DHT22;26604;53.596;10.042;2023-04-25T08:23:30;19.00;99.90
15638;DHT22;26604;53.596;10.042;2023-04-25T08:25:57;19.00;99.90
15638;DHT22;26604;53.596;10.042;2023-04-25T08:28:23;19.00;99.90
15638;DHT22;26604;53.596;10.042;2023-04-25T08:30:51;19.00;99.90
15638;DHT22;26604;53.596;10.042;2023-04-25T08:33:18;19.00;99.90
15638;DHT22;26604;53.596;10.042;2023-04-25T08:35:45;19.00;99.90
15638;DHT22;26604;53.596;10.042;2023-04-25T08:38:13;19.00;99.90
15638;DHT22;26604;53.596;10.042;2023-04-25T08:40:40;19.00;99.90
15638;DHT22;26604;53.596;10.042;2023-04-25T08:43:07;19.00;99.90
15638;DHT22;26604;53.596;10.042;2023-04-25T08:45:37;19.00;99.90
15638;DHT22;26604;53.596;10.042;2023-04-25T08:48:08;19.00;99.90
15638;DHT22;26604;53.596;10.042;2023-04-25T08:50:36;19.00;99.90
15638;DHT22;26604;53.596;10.042;2023-04-25T08:53:04;19.00;99.90
15638;DHT22;26604;53.596;10.042;2023-04-25T08:55:30;19.00;99.90
15638;DHT22;26604;53.596;10.042;2023-04-25T08:58:00;19.00;99.90
15638;DHT22;26604;53.596;10.042;2023-04-25T09:00:27;19.00;99.90
15638;DHT22;26604;53.596;10.042;2023-04-25T09:02:54;19.00;99.90
15638;DHT22;26604;53.596;10.042;2023-04-25T09:05:23;19.00;99.90
15638;DHT22;26604;53.596;10.042;2023-04-25T09:07:50;19.00;99.90
15638;DHT22;26604;53.596;10.042;2023-04-25T09:10:17;19.00;99.90
15638;DHT22;26604;53.596;10.042;2023-04-25T09:12:58;19.00;99.90
15638;DHT22;26604;53.596;10.042;2023-04-25T09:15:27;19.00;99.90
15638;DHT22;26604;53.596;10.042;2023-04-25T09:17:55;19.00;99.90
15638;DHT22;26604;53.596;10.042;2023-04-25T09:20:24;19.10;99.90
15638;DHT22;26604;53.596;10.042;2023-04-25T09:23:02;19.10;99.90
15638;DHT22;26604;53.596;10.042;2023-04-25T09:25:33;19.10;99.90
15638;DHT22;26604;53.596;10.042;2023-04-25T09:28:00;19.10;99.90
15638;DHT22;26604;53.596;10.042;2023-04-25T09:30:29;19.10;99.90
15638;DHT22;26604;53.596;10.042;2023-04-25T09:32:57;19.10;99.90
15638;DHT22;26604;53.596;10.042;2023-04-25T09:35:25;19.10;99.90
15638;DHT22;26604;53.596;10.042;2023-04-25T09:37:52;19.10;99.90
15638;DHT22;26604;53.596;10.042;2023-04-25T09:40:19;19.10;99.90
15638;DHT22;26604;53.596;10.042;2023-04-25T09:42:45;19.20;99.90
15638;DHT22;26604;53.596;10.042;2023-04-25T09:45:12;19.20;99.90
15638;DHT22;26604;53.596;10.042;2023-04-25T09:47:40;19.10;99.90
15638;DHT22;26604;53.596;10.042;2023-04-25T09:50:13;19.10;99.90
15638;DHT22;26604;53.596;10.042;2023-04-25T09:52:41;19.10;99.90
15638;DHT22;26604;53.596;10.042;2023-04-25T09:55:26;19.10;99.90
15638;DHT22;26604;53.596;10.042;2023-04-25T09:57:53;19.10;99.90
15638;DHT22;26604;53.596;10.042;2023-04-25T10:00:21;19.10;99.90
15638;DHT22;26604;53.596;10.042;2023-04-25T10:02:48;19.10;99.90
15638;DHT22;26604;53.596;10.042;2023-04-25T10:05:15;19.10;99.90
15638;DHT22;26604;53.596;10.042;2023-04-25T10:07:43;19.10;99.90
15638;DHT22;26604;53.596;10.042;2023-04-25T10:10:10;19.00;99.90
15638;DHT22;26604;53.596;10.042;2023-04-25T10:12:38;19.10;99.90
15638;DHT22;26604;53.596;10.042;2023-04-25T10:15:06;19.10;99.90
15638;DHT22;26604;53.596;10.042;2023-04-25T10:17:34;19.10;99.90
15638;DHT22;26604;53.596;10.042;2023-04-25T10:20:01;19.10;99.90
15638;DHT22;26604;53.596;10.042;2023-04-25T10:22:29;19.10;99.90
15638;DHT22;26604;53.596;10.042;2023-04-25T10:24:59;19.10;99.90
15638;DHT22;26604;53.596;10.042;2023-04-25T10:27:29;19.20;99.90
15638;DHT22;26604;53.596;10.042;2023-04-25T10:30:02;19.20;99.90
15638;DHT22;26604;53.596;10.042;2023-04-25T10:32:30;19.20;99.90
15638;DHT22;26604;53.596;10.042;2023-04-25T10:34:57;19.20;99.90
15638;DHT22;26604;53.596;10.042;2023-04-25T10:37:24;19.20;99.90
15638;DHT22;26604;53.596;10.042;2023-04-25T10:39:51;19.20;99.90
15638;DHT22;26604;53.596;10.042;2023-04-25T10:42:21;19.20;99.90
15638;DHT22;26604;53.596;10.042;2023-04-25T10:45:00;19.20;99.90
15638;DHT22;26604;53.596;10.042;2023-04-25T10:47:34;19.20;99.90
15638;DHT22;26604;53.596;10.042;2023-04-25T10:50:04;19.10;99.90
15638;DHT22;26604;53.596;10.042;2023-04-25T10:52:32;19.10;99.90
15638;DHT22;26604;53.596;10.042;2023-04-25T10:54:59;19.10;99.90
15638;DHT22;26604;53.596;10.042;2023-04-25T10:57:31;19.20;99.90
15638;DHT22;26604;53.596;10.042;2023-04-25T10:59:59;19.10;99.90
15638;DHT22;26604;53.596;10.042;2023-04-25T11:02:26;19.10;99.90
15638;DHT22;26604;53.596;10.042;2023-04-25T11:04:53;19.10;99.90
15638;DHT22;26604;53.596;10.042;2023-04-25T11:07:23;19.10;99.90
15638;DHT22;26604;53.596;10.042;2023-04-25T11:09:50;19.10;99.90
15638;DHT22;26604;53.596;10.042;2023-04-25T11:12:16;19.20;99.90
15638;DHT22;26604;53.596;10.042;2023-04-25T11:14:47;19.20;99.90
15638;DHT22;26604;53.596;10.042;2023-04-25T11:17:14;19.20;99.90
15638;DHT22;26604;53.596;10.042;2023-04-25T11:19:41;19.20;99.90
15638;DHT22;26604;53.596;10.042;2023-04-25T11:22:07;19.20;99.90
15638;DHT22;26604;53.596;10.042;2023-04-25T11:24:36;19.10;99.90
15638;DHT22;26604;53.596;10.042;2023-04-25T11:27:03;19.10;99.90
15638;DHT22;26604;53.596;10.042;2023-04-25T11:29:31;19.20;99.90
15638;DHT22;26604;53.596;10.042;2023-04-25T11:31:59;19.10;99.90
15638;DHT22;26604;53.596;10.042;2023-04-25T11:34:27;19.10;99.90
15638;DHT22;26604;53.596;10.042;2023-04-25T11:36:56;19.20;99.90
15638;DHT22;26604;53.596;10.042;2023-04-25T11:39:23;19.10;99.90
15638;DHT22;26604;53.596;10.042;2023-04-25T11:41:50;19.20;99.90
15638;DHT22;26604;53.596;10.042;2023-04-25T11:44:17;19.10;99.90
15638;DHT22;26604;53.596;10.042;2023-04-25T11:46:44;19.10;99.90
15638;DHT22;26604;53.596;10.042;2023-04-25T11:49:14;19.10;99.90
15638;DHT22;26604;53.596;10.042;2023-04-25T11:51:43;19.10;99.90
15638;DHT22;26604;53.596;10.042;2023-04-25T11:54:10;19.10;99.90
15638;DHT22;26604;53.596;10.042;2023-04-25T11:56:37;19.20;99.90
15638;DHT22;26604;53.596;10.042;2023-04-25T11:59:04;19.20;99.90
15638;DHT22;26604;53.596;10.042;2023-04-25T12:01:31;19.20;99.90
15638;DHT22;26604;53.596;10.042;2023-04-25T12:03:58;19.20;99.90
15638;DHT22;26604;53.596;10.042;2023-04-25T12:06:29;19.20;99.90
15638;DHT22;26604;53.596;10.042;2023-04-25T12:08:59;19.20;99.90
15638;DHT22;26604;53.596;10.042;2023-04-25T12:11:25;19.20;99.90
15638;DHT22;26604;53.596;10.042;2023-04-25T12:13:52;19.20;99.90
15638;DHT22;26604;53.596;10.042;2023-04-25T12:16:19;19.20;99.90
15638;DHT22;26604;53.596;10.042;2023-04-25T12:18:46;19.20;99.90
15638;DHT22;26604;53.596;10.042;2023-04-25T12:21:13;19.20;99.90
15638;DHT22;26604;53.596;10.042;2023-04-25T12:23:41;19.20;99.90
15638;DHT22;26604;53.596;10.042;2023-04-25T12:26:07;19.20;99.90
15638;DHT22;26604;53.596;10.042;2023-04-25T12:28:34;19.20;99.90
15638;DHT22;26604;53.596;10.042;2023-04-25T12:31:01;19.20;99.90
15638;DHT22;26604;53.596;10.042;2023-04-25T12:33:30;19.20;99.90
15638;DHT22;26604;53.596;10.042;2023-04-25T12:35:57;19.20;99.90
15638;DHT22;26604;53.596;10.042;2023-04-25T12:38:24;19.20;99.90
15638;DHT22;26604;53.596;10.042;2023-04-25T12:40:53;19.20;99.90
15638;DHT22;26604;53.596;10.042;2023-04-25T12:43:19;19.20;99.90
15638;DHT22;26604;53.596;10.042;2023-04-25T12:45:47;19.20;99.90
15638;DHT22;26604;53.596;10.042;2023-04-25T12:48:14;19.20;99.90
15638;DHT22;26604;53.596;10.042;2023-04-25T12:50:40;19.20;99.90
15638;DHT22;26604;53.596;10.042;2023-04-25T12:53:07;19.20;99.90
15638;DHT22;26604;53.596;10.042;2023-04-25T12:55:34;19.20;99.90
15638;DHT22;26604;53.596;10.042;2023-04-25T12:58:02;19.20;99.90
15638;DHT22;26604;53.596;10.042;2023-04-25T13:00:29;19.20;99.90
15638;DHT22;26604;53.596;10.042;2023-04-25T13:02:57;19.20;99.90
15638;DHT22;26604;53.596;10.042;2023-04-25T13:05:23;19.20;99.90
15638;DHT22;26604;53.596;10.042;2023-04-25T13:07:50;19.20;99.90
15638;DHT22;26604;53.596;10.042;2023-04-25T13:10:17;19.20;99.90
15638;DHT22;26604;53.596;10.042;2023-04-25T13:12:44;19.20;99.90
15638;DHT22;26604;53.596;10.042;2023-04-25T13:15:12;19.30;99.90
15638;DHT22;26604;53.596;10.042;2023-04-25T13:17:40;19.20;99.90
15638;DHT22;26604;53.596;10.042;2023-04-25T13:20:08;19.30;99.90
15638;DHT22;26604;53.596;10.042;2023-04-25T13:22:35;19.20;99.90
15638;DHT22;26604;53.596;10.042;2023-04-25T13:25:03;19.20;99.90
15638;DHT22;26604;53.596;10.042;2023-04-25T13:27:29;19.30;99.90
15638;DHT22;26604;53.596;10.042;2023-04-25T13:29:57;19.30;99.90
15638;DHT22;26604;53.596;10.042;2023-04-25T13:32:25;19.30;99.90
15638;DHT22;26604;53.596;10.042;2023-04-25T13:34:52;19.30;99.90
15638;DHT22;26604;53.596;10.042;2023-04-25T13:37:19;19.30;99.90
15638;DHT22;26604;53.596;10.042;2023-04-25T13:39:46;19.30;99.90
15638;DHT22;26604;53.596;10.042;2023-04-25T13:42:12;19.20;99.90
15638;DHT22;26604;53.596;10.042;2023-04-25T13:44:39;19.20;99.90
15638;DHT22;26604;53.596;10.042;2023-04-25T13:47:06;19.20;99.90
15638;DHT22;26604;53.596;10.042;2023-04-25T13:49:34;19.20;99.90
15638;DHT22;26604;53.596;10.042;2023-04-25T13:52:00;19.20;99.90
15638;DHT22;26604;53.596;10.042;2023-04-25T13:54:27;19.20;99.90
15638;DHT22;26604;53.596;10.042;2023-04-25T13:56:54;19.20;99.90
15638;DHT22;26604;53.596;10.042;2023-04-25T13:59:23;19.10;99.90
15638;DHT22;26604;53.596;10.042;2023-04-25T14:01:50;19.20;99.90
15638;DHT22;26604;53.596;10.042;2023-04-25T14:04:17;19.20;99.90
15638;DHT22;26604;53.596;10.042;2023-04-25T14:06:45;19.10;99.90
15638;DHT22;26604;53.596;10.042;2023-04-25T14:09:12;19.10;99.90
15638;DHT22;26604;53.596;10.042;2023-04-25T14:11:38;19.10;99.90
15638;DHT22;26604;53.596;10.042;2023-04-25T14:14:05;19.20;99.90
15638;DHT22;26604;53.596;10.042;2023-04-25T14:16:32;19.10;99.90
15638;DHT22;26604;53.596;10.042;2023-04-25T14:18:58;19.10;99.90
15638;DHT22;26604;53.596;10.042;2023-04-25T14:21:25;19.10;99.90
15638;DHT22;26604;53.596;10.042;2023-04-25T14:23:53;19.10;99.90
15638;DHT22;26604;53.596;10.042;2023-04-25T14:26:20;19.10;99.90
15638;DHT22;26604;53.596;10.042;2023-04-25T14:28:46;19.10;99.90
15638;DHT22;26604;53.596;10.042;2023-04-25T14:31:13;19.10;99.90
15638;DHT22;26604;53.596;10.042;2023-04-25T14:33:40;19.10;99.90
15638;DHT22;26604;53.596;10.042;2023-04-25T14:36:08;19.10;99.90
15638;DHT22;26604;53.596;10.042;2023-04-25T14:38:35;19.10;99.90
15638;DHT22;26604;53.596;10.042;2023-04-25T14:41:03;19.10;99.90
15638;DHT22;26604;53.596;10.042;2023-04-25T14:43:30;19.10;99.90
15638;DHT22;26604;53.596;10.042;2023-04-25T14:45:56;19.10;99.90
15638;DHT22;26604;53.596;10.042;2023-04-25T14:48:23;19.20;99.90
15638;DHT22;26604;53.596;10.042;2023-04-25T14:50:50;19.20;99.90
15638;DHT22;26604;53.596;10.042;2023-04-25T14:53:17;19.20;99.90
15638;DHT22;26604;53.596;10.042;2023-04-25T14:55:43;19.10;99.90
15638;DHT22;26604;53.596;10.042;2023-04-25T14:58:12;19.10;99.90
15638;DHT22;26604;53.596;10.042;2023-04-25T15:00:38;19.10;99.90
15638;DHT22;26604;53.596;10.042;2023-04-25T15:03:05;19.10;99.90
15638;DHT22;26604;53.596;10.042;2023-04-25T15:05:32;19.10;99.90
15638;DHT22;26604;53.596;10.042;2023-04-25T15:07:59;19.10;99.90
15638;DHT22;26604;53.596;10.042;2023-04-25T15:10:26;19.10;99.90
15638;DHT22;26604;53.596;10.042;2023-04-25T15:12:53;19.20;99.90
15638;DHT22;26604;53.596;10.042;2023-04-25T15:15:24;19.10;99.90